createdAt,value
2023-05-08T00:01:02.829Z,2.40
2023-05-08T00:03:29.933Z,2.10
2023-05-08T00:05:56.919Z,2.30
2023-05-08T00:08:23.876Z,2.50
2023-05-08T00:10:50.789Z,2.10
2023-05-08T00:13:17.811Z,2.60
2023-05-08T00:15:44.711Z,2.60
2023-05-08T00:18:11.889Z,2.30
2023-05-08T00:20:38.695Z,2.50
2023-05-08T00:23:05.758Z,2.50
2023-05-08T00:25:32.706Z,2.30
2023-05-08T00:28:00.200Z,2.50
2023-05-08T00:30:27.290Z,2.00
2023-05-08T00:32:54.418Z,2.20
2023-05-08T00:35:22.088Z,2.40
2023-05-08T00:37:48.863Z,2.50
2023-05-08T00:40:16.231Z,2.20
2023-05-08T00:42:43.366Z,2.40
2023-05-08T00:45:10.848Z,2.70
2023-05-08T00:47:37.860Z,2.20
2023-05-08T00:50:05.580Z,2.70
2023-05-08T00:52:33.159Z,2.20
2023-05-08T00:55:01.518Z,2.30
2023-05-08T00:57:32.676Z,2.40
2023-05-08T01:00:00.243Z,2.20
2023-05-08T01:02:27.668Z,2.10
2023-05-08T01:04:54.678Z,2.20
2023-05-08T01:07:21.525Z,2.10
2023-05-08T01:09:49.038Z,2.50
2023-05-08T01:12:16.660Z,2.00
2023-05-08T01:14:55.886Z,1.80
2023-05-08T01:17:46.118Z,2.50
2023-05-08T01:20:17.820Z,2.70
2023-05-08T01:23:06.807Z,2.60
2023-05-08T01:25:52.019Z,3.00
2023-05-08T01:28:37.794Z,2.00
2023-05-08T01:31:22.958Z,1.10
2023-05-08T01:33:57.017Z,2.90
2023-05-08T01:36:44.380Z,2.80
2023-05-08T01:39:34.341Z,2.40
2023-05-08T01:42:05.124Z,2.20
2023-05-08T01:44:42.049Z,2.40
2023-05-08T01:47:10.183Z,2.20
2023-05-08T01:49:47.843Z,2.10
2023-05-08T01:52:32.297Z,2.40
2023-05-08T01:55:01.996Z,2.80
2023-05-08T01:57:29.560Z,2.50
2023-05-08T01:59:56.964Z,2.70
2023-05-08T02:02:24.139Z,2.50
2023-05-08T02:04:51.178Z,2.40
2023-05-08T02:07:20.496Z,2.70
2023-05-08T02:09:47.467Z,2.40
2023-05-08T02:12:14.609Z,3.00
2023-05-08T02:14:41.554Z,2.50
2023-05-08T02:17:09.641Z,2.50
2023-05-08T02:19:36.572Z,2.30
2023-05-08T02:22:03.520Z,2.30
2023-05-08T02:24:30.669Z,2.40
2023-05-08T02:26:57.475Z,2.50
2023-05-08T02:29:24.454Z,2.80
2023-05-08T02:31:52.521Z,2.20
2023-05-08T02:34:19.681Z,2.50
2023-05-08T02:36:46.625Z,2.10
2023-05-08T02:39:14.193Z,2.50
2023-05-08T02:41:41.030Z,2.30
2023-05-08T02:44:08.391Z,2.50
2023-05-08T02:46:41.980Z,2.80
2023-05-08T02:49:29.241Z,2.20
2023-05-08T02:52:24.451Z,2.60
2023-05-08T02:54:59.017Z,2.50
2023-05-08T02:57:38.006Z,2.70
2023-05-08T03:00:16.347Z,2.50
2023-05-08T03:02:44.950Z,2.70
2023-05-08T03:05:26.292Z,2.70
2023-05-08T03:07:54.589Z,2.70
2023-05-08T03:10:22.601Z,2.50
2023-05-08T03:12:50.177Z,2.80
2023-05-08T03:15:24.540Z,2.30
2023-05-08T03:17:53.746Z,2.80
2023-05-08T03:20:20.572Z,2.20
2023-05-08T03:22:48.339Z,2.70
2023-05-08T03:25:17.087Z,2.40
2023-05-08T03:27:44.441Z,2.40
2023-05-08T03:30:12.342Z,2.50
2023-05-08T03:32:41.702Z,2.30
2023-05-08T03:35:09.616Z,2.30
2023-05-08T03:37:36.604Z,2.30
2023-05-08T03:40:03.963Z,2.40
2023-05-08T03:42:30.826Z,2.80
2023-05-08T03:44:57.950Z,2.60
2023-05-08T03:47:26.249Z,2.70
2023-05-08T03:49:53.450Z,2.60
2023-05-08T03:52:21.058Z,2.60
2023-05-08T03:54:48.007Z,3.00
2023-05-08T03:57:15.055Z,2.50
2023-05-08T04:00:06.416Z,2.60
2023-05-08T04:02:50.811Z,2.60
2023-05-08T04:05:32.029Z,2.60
2023-05-08T04:08:10.092Z,2.60
2023-05-08T04:10:40.291Z,2.40
2023-05-08T04:13:13.328Z,2.60
2023-05-08T04:16:01.435Z,1.60
2023-05-08T04:18:30.044Z,2.70
2023-05-08T04:20:58.425Z,3.30
2023-05-08T04:23:27.365Z,2.40
2023-05-08T04:25:55.282Z,2.60
2023-05-08T04:28:22.732Z,2.90
2023-05-08T04:30:49.862Z,2.60
2023-05-08T04:33:18.760Z,2.60
2023-05-08T04:35:48.903Z,2.80
2023-05-08T04:38:16.181Z,2.90
2023-05-08T04:40:43.183Z,2.90
2023-05-08T04:43:10.318Z,2.60
2023-05-08T04:45:37.787Z,3.00
2023-05-08T04:48:05.462Z,2.90
2023-05-08T04:50:32.384Z,3.00
2023-05-08T04:52:59.470Z,2.90
2023-05-08T04:55:26.597Z,2.70
2023-05-08T04:57:53.764Z,2.80
2023-05-08T05:00:20.903Z,3.10
2023-05-08T05:02:48.814Z,3.00
2023-05-08T05:05:15.965Z,2.90
2023-05-08T05:07:42.959Z,2.60
2023-05-08T05:10:10.558Z,2.90
2023-05-08T05:12:38.101Z,3.10
2023-05-08T05:15:05.396Z,2.70
2023-05-08T05:17:33.863Z,2.90
2023-05-08T05:20:00.984Z,3.10
2023-05-08T05:22:28.985Z,2.90
2023-05-08T05:24:56.745Z,3.00
2023-05-08T05:27:24.695Z,3.20
2023-05-08T05:29:51.620Z,2.80
2023-05-08T05:32:18.954Z,2.60
2023-05-08T05:34:45.970Z,2.70
2023-05-08T05:37:13.089Z,3.00
2023-05-08T05:39:40.131Z,2.50
2023-05-08T05:42:07.181Z,2.80
2023-05-08T05:44:34.125Z,2.90
2023-05-08T05:47:01.062Z,2.90
2023-05-08T05:49:28.119Z,3.00
2023-05-08T05:51:54.988Z,3.20
2023-05-08T05:54:22.180Z,2.70
2023-05-08T05:56:49.451Z,3.00
2023-05-08T05:59:16.725Z,2.70
2023-05-08T06:01:44.082Z,3.10
2023-05-08T06:04:11.303Z,2.70
2023-05-08T06:06:39.395Z,3.40
2023-05-08T06:09:07.276Z,3.10
2023-05-08T06:11:34.273Z,3.30
2023-05-08T06:14:01.255Z,2.90
2023-05-08T06:16:28.394Z,2.50
2023-05-08T06:18:55.621Z,3.10
2023-05-08T06:21:22.500Z,3.00
2023-05-08T06:23:49.763Z,2.60
2023-05-08T06:26:16.597Z,3.00
2023-05-08T06:28:43.445Z,3.10
2023-05-08T06:31:10.623Z,3.10
2023-05-08T06:33:37.613Z,2.70
2023-05-08T06:36:07.569Z,2.60
2023-05-08T06:38:34.402Z,2.70
2023-05-08T06:41:01.350Z,3.20
2023-05-08T06:43:28.298Z,3.20
2023-05-08T06:45:55.380Z,3.10
2023-05-08T06:48:22.212Z,3.00
2023-05-08T06:50:51.181Z,2.70
2023-05-08T06:53:18.011Z,3.30
2023-05-08T06:55:44.924Z,3.20
2023-05-08T06:58:11.916Z,3.40
2023-05-08T07:00:38.857Z,3.20
2023-05-08T07:03:05.904Z,2.90
2023-05-08T07:05:32.935Z,2.90
2023-05-08T07:07:59.963Z,3.10
2023-05-08T07:10:27.021Z,2.90
2023-05-08T07:12:54.654Z,3.20
2023-05-08T07:15:26.420Z,3.00
2023-05-08T07:17:54.138Z,3.00
2023-05-08T07:20:21.902Z,2.80
2023-05-08T07:22:48.851Z,2.70
2023-05-08T07:25:16.348Z,3.60
2023-05-08T07:27:43.270Z,3.10
2023-05-08T07:30:10.933Z,2.90
2023-05-08T07:32:39.625Z,3.00
2023-05-08T07:35:13.623Z,2.70
2023-05-08T07:37:40.868Z,3.40
2023-05-08T07:40:08.873Z,3.20
2023-05-08T07:42:42.345Z,3.00
2023-05-08T07:45:10.114Z,2.80
2023-05-08T08:01:14.674Z,3.20
2023-05-08T08:03:41.543Z,2.80
2023-05-08T08:06:08.495Z,3.30
2023-05-08T08:08:35.543Z,2.90
2023-05-08T08:11:03.802Z,2.90
2023-05-08T08:13:31.129Z,2.70
2023-05-08T08:15:58.537Z,3.10
2023-05-08T08:18:25.799Z,2.50
2023-05-08T08:20:52.656Z,2.90
2023-05-08T08:23:19.533Z,2.80
2023-05-08T08:25:46.390Z,3.30
2023-05-08T08:28:13.258Z,2.30
2023-05-08T08:30:40.041Z,2.60
2023-05-08T08:33:07.328Z,2.70
2023-05-08T08:35:34.268Z,2.90
2023-05-08T08:38:01.204Z,2.20
2023-05-08T08:40:28.521Z,2.50
2023-05-08T08:42:55.757Z,2.30
2023-05-08T08:45:22.814Z,2.70
2023-05-08T08:47:49.765Z,2.70
2023-05-08T08:50:16.785Z,2.40
2023-05-08T08:52:58.904Z,2.80
2023-05-08T08:55:26.054Z,2.10
2023-05-08T08:57:55.466Z,2.30
2023-05-08T09:00:23.624Z,2.70
2023-05-08T09:02:50.765Z,2.50
2023-05-08T09:05:17.948Z,2.50
2023-05-08T09:07:44.774Z,2.30
2023-05-08T09:10:15.528Z,2.90
2023-05-08T09:12:42.712Z,2.90
2023-05-08T09:15:09.814Z,2.50
2023-05-08T09:17:36.703Z,2.60
2023-05-08T09:20:04.140Z,2.70
2023-05-08T09:22:31.401Z,2.80
2023-05-08T09:24:59.433Z,2.60
2023-05-08T09:27:27.809Z,2.50
2023-05-08T09:30:05.051Z,2.90
2023-05-08T09:32:32.898Z,2.70
2023-05-08T09:35:00.321Z,2.80
2023-05-08T09:37:28.089Z,2.60
2023-05-08T09:39:55.175Z,2.80
2023-05-08T09:42:23.524Z,3.20
2023-05-08T09:44:54.138Z,2.90
2023-05-08T09:47:25.167Z,2.60
2023-05-08T09:50:09.771Z,2.90
2023-05-08T09:52:38.231Z,2.50
2023-05-08T09:55:09.989Z,2.20
2023-05-08T09:57:39.444Z,2.60
2023-05-08T10:00:09.062Z,2.40
2023-05-08T10:02:38.940Z,2.70
2023-05-08T10:05:27.469Z,2.80
2023-05-08T10:07:54.448Z,2.60
2023-05-08T10:10:28.724Z,2.60
2023-05-08T10:12:56.050Z,2.30
2023-05-08T10:15:29.569Z,2.50
2023-05-08T10:18:06.754Z,2.60
2023-05-08T10:20:36.027Z,2.70
2023-05-08T10:23:03.935Z,2.60
2023-05-08T10:25:34.688Z,2.70
2023-05-08T10:28:13.932Z,2.40
2023-05-08T10:30:44.710Z,2.30
2023-05-08T10:33:11.639Z,2.50
2023-05-08T10:35:38.639Z,2.40
2023-05-08T10:38:05.817Z,2.90
2023-05-08T10:40:32.820Z,2.90
2023-05-08T10:42:59.812Z,2.80
2023-05-08T10:45:26.590Z,2.60
2023-05-08T10:48:28.293Z,2.10
2023-05-08T10:51:06.341Z,2.70
2023-05-08T10:53:36.773Z,2.70
2023-05-08T10:56:03.870Z,2.60
2023-05-08T10:58:31.783Z,2.30
2023-05-08T11:01:07.423Z,2.20
2023-05-08T11:03:42.756Z,2.00
2023-05-08T11:06:09.975Z,1.90
2023-05-08T11:08:46.717Z,2.80
2023-05-08T11:11:33.816Z,2.40
2023-05-08T11:14:07.087Z,2.30
2023-05-08T11:16:57.149Z,2.50
2023-05-08T11:19:24.792Z,2.20
2023-05-08T11:22:16.875Z,2.50
2023-05-08T11:25:06.022Z,2.60
2023-05-08T11:27:35.787Z,2.00
2023-05-08T11:30:22.356Z,2.50
2023-05-08T11:33:05.100Z,2.00
2023-05-08T11:36:01.181Z,2.00
2023-05-08T11:38:28.939Z,2.60
2023-05-08T11:40:58.359Z,2.70
2023-05-08T11:43:27.431Z,2.60
2023-05-08T11:45:55.208Z,2.10
2023-05-08T11:48:23.172Z,2.60
2023-05-08T11:50:50.124Z,3.40
2023-05-08T11:53:17.478Z,2.30
2023-05-08T11:55:52.382Z,2.30
2023-05-08T11:58:19.257Z,2.70
2023-05-08T12:00:47.062Z,2.50
2023-05-08T12:03:14.973Z,2.10
2023-05-08T12:05:42.241Z,3.00
2023-05-08T12:08:09.904Z,2.60
2023-05-08T12:10:56.951Z,2.60
2023-05-08T12:13:30.655Z,2.60
2023-05-08T12:15:58.965Z,2.70
2023-05-08T12:18:27.380Z,3.20
2023-05-08T12:20:57.167Z,3.40
2023-05-08T12:23:28.883Z,2.60
2023-05-08T12:25:58.577Z,3.20
2023-05-08T12:28:25.373Z,2.80
2023-05-08T12:30:52.349Z,2.80
2023-05-08T12:33:19.327Z,2.90
2023-05-08T12:35:46.228Z,3.30
2023-05-08T12:38:15.444Z,2.80
2023-05-08T12:40:43.317Z,3.30
2023-05-08T12:43:10.317Z,3.20
2023-05-08T12:45:39.658Z,2.80
2023-05-08T12:48:07.857Z,3.30
2023-05-08T12:50:41.947Z,2.60
2023-05-08T12:53:10.960Z,3.60
2023-05-08T12:55:39.881Z,3.30
2023-05-08T12:58:15.305Z,3.90
2023-05-08T13:00:47.242Z,3.30
2023-05-08T13:03:34.557Z,3.30
2023-05-08T13:06:01.505Z,3.50
2023-05-08T13:08:32.220Z,3.10
2023-05-08T13:10:59.629Z,3.10
2023-05-08T13:13:28.264Z,3.60
2023-05-08T13:15:55.691Z,3.20
2023-05-08T13:18:25.199Z,2.80
2023-05-08T13:20:52.304Z,2.80
2023-05-08T13:23:19.445Z,2.80
2023-05-08T13:25:46.335Z,2.80
2023-05-08T13:28:13.240Z,2.60
2023-05-08T13:30:40.246Z,2.80
2023-05-08T13:33:07.110Z,2.30
2023-05-08T13:35:34.197Z,2.70
2023-05-08T13:38:01.014Z,2.50
2023-05-08T13:40:27.991Z,2.10
2023-05-08T13:42:54.820Z,2.10
2023-05-08T13:45:21.748Z,2.40
2023-05-08T13:47:49.516Z,2.50
2023-05-08T13:50:17.089Z,2.00
2023-05-08T13:52:43.935Z,2.30
2023-05-08T13:55:12.505Z,2.40
2023-05-08T13:57:39.783Z,1.80
2023-05-08T14:00:07.485Z,2.00
2023-05-08T14:02:34.530Z,2.80
2023-05-08T14:05:01.628Z,2.70
2023-05-08T14:07:30.139Z,2.40
2023-05-08T14:09:57.032Z,2.00
2023-05-08T14:12:23.929Z,2.80
2023-05-08T14:14:50.855Z,2.70
2023-05-08T14:17:18.644Z,2.00
2023-05-08T14:19:46.330Z,2.20
2023-05-08T14:22:13.170Z,2.70
2023-05-08T14:24:40.196Z,2.30
2023-05-08T14:27:07.024Z,2.50
2023-05-08T14:29:34.206Z,2.50
2023-05-08T14:32:01.697Z,2.20
2023-05-08T14:34:28.648Z,2.20
2023-05-08T14:36:55.490Z,2.50
2023-05-08T14:39:22.456Z,2.60
2023-05-08T14:42:05.740Z,2.70
2023-05-08T14:44:36.263Z,1.90
2023-05-08T14:47:03.129Z,2.40
2023-05-08T14:49:37.423Z,2.70
2023-05-08T14:52:05.745Z,2.50
2023-05-08T14:54:33.005Z,2.50
2023-05-08T14:57:00.355Z,2.10
2023-05-08T14:59:27.202Z,2.30
2023-05-08T15:01:54.740Z,2.10
2023-05-08T15:04:21.882Z,2.20
2023-05-08T15:06:48.933Z,2.40
2023-05-08T15:09:16.958Z,2.70
2023-05-08T15:11:44.348Z,2.60
2023-05-08T15:14:11.389Z,2.30
2023-05-08T15:16:38.371Z,2.30
2023-05-08T15:19:05.409Z,2.10
2023-05-08T15:21:32.451Z,2.60
2023-05-08T15:23:59.411Z,2.70
2023-05-08T15:26:26.305Z,2.50
2023-05-08T15:28:53.374Z,2.50
2023-05-08T15:31:20.394Z,2.60
2023-05-08T15:33:48.309Z,2.20
2023-05-08T15:36:15.619Z,2.80
2023-05-08T15:38:42.558Z,2.40
2023-05-08T15:41:14.572Z,2.50
2023-05-08T15:43:42.789Z,2.30
2023-05-08T15:46:09.999Z,2.70
2023-05-08T15:48:37.069Z,2.30
2023-05-08T15:51:03.959Z,2.50
2023-05-08T15:53:30.852Z,2.40
2023-05-08T15:55:57.698Z,2.40
2023-05-08T15:58:24.957Z,2.80
2023-05-08T16:00:52.189Z,2.60
2023-05-08T16:03:19.616Z,3.00
2023-05-08T16:05:46.582Z,2.40
2023-05-08T16:08:13.927Z,2.40
2023-05-08T16:10:44.009Z,2.60
2023-05-08T16:13:11.258Z,2.30
2023-05-08T16:15:38.101Z,2.40
2023-05-08T16:18:06.269Z,2.20
2023-05-08T16:20:36.422Z,2.40
2023-05-08T16:23:03.423Z,2.70
2023-05-08T16:25:30.314Z,2.60
2023-05-08T16:27:57.271Z,2.30
2023-05-08T16:30:24.087Z,2.90
2023-05-08T16:32:50.987Z,3.30
2023-05-08T16:35:18.103Z,3.00
2023-05-08T16:37:45.140Z,3.00
2023-05-08T16:40:12.379Z,2.70
2023-05-08T16:42:39.742Z,3.00
2023-05-08T16:45:08.120Z,3.00
2023-05-08T16:47:35.173Z,3.30
2023-05-08T16:50:02.475Z,2.40
2023-05-08T16:52:29.447Z,3.00
2023-05-08T16:54:56.266Z,2.80
2023-05-08T16:57:23.156Z,2.60
2023-05-08T16:59:49.970Z,3.60
2023-05-08T17:02:19.699Z,3.00
2023-05-08T17:04:48.147Z,2.60
2023-05-08T17:07:15.592Z,3.00
2023-05-08T17:09:42.824Z,3.20
2023-05-08T17:12:10.014Z,3.30
2023-05-08T17:14:39.462Z,3.40
2023-05-08T17:17:07.011Z,3.20
2023-05-08T17:19:34.259Z,3.10
2023-05-08T17:22:01.147Z,3.10
2023-05-08T17:24:30.040Z,3.50
2023-05-08T17:26:56.875Z,3.00
2023-05-08T17:29:23.695Z,3.50
2023-05-08T17:31:51.265Z,2.90
2023-05-08T17:34:18.797Z,2.60
2023-05-08T17:36:45.678Z,2.70
2023-05-08T17:39:12.608Z,3.20
2023-05-08T17:41:39.469Z,3.20
2023-05-08T17:44:07.116Z,3.20
2023-05-08T17:46:35.243Z,3.60
2023-05-08T17:49:02.132Z,3.10
2023-05-08T17:51:28.964Z,3.30
2023-05-08T17:53:56.923Z,3.10
2023-05-08T17:56:23.946Z,3.90
2023-05-08T17:58:52.551Z,3.70
2023-05-08T18:01:19.922Z,3.40
2023-05-08T18:03:48.292Z,3.40
2023-05-08T18:06:16.206Z,3.50
2023-05-08T18:08:43.289Z,2.90
2023-05-08T18:11:20.812Z,3.00
2023-05-08T18:13:47.942Z,2.90
2023-05-08T18:16:17.312Z,3.90
2023-05-08T18:18:44.579Z,3.20
2023-05-08T18:21:11.400Z,3.80
2023-05-08T18:23:38.227Z,3.50
2023-05-08T18:26:05.137Z,3.70
2023-05-08T18:28:32.033Z,4.00
2023-05-08T18:30:58.968Z,3.30
2023-05-08T18:33:25.953Z,3.50
2023-05-08T18:35:52.773Z,3.40
2023-05-08T18:38:19.743Z,3.90
2023-05-08T18:40:46.679Z,3.90
2023-05-08T18:43:13.733Z,3.80
2023-05-08T18:45:43.301Z,3.90
2023-05-08T18:48:10.669Z,4.00
2023-05-08T18:50:38.098Z,3.60
2023-05-08T18:53:04.993Z,3.70
2023-05-08T18:55:32.248Z,4.40
2023-05-08T18:58:02.468Z,4.00
2023-05-08T19:00:29.467Z,3.70
2023-05-08T19:02:56.487Z,4.40
2023-05-08T19:05:26.683Z,4.10
2023-05-08T19:07:53.690Z,4.00
2023-05-08T19:10:20.635Z,4.00
2023-05-08T19:12:47.573Z,4.40
2023-05-08T19:15:15.391Z,4.30
2023-05-08T19:17:42.637Z,4.40
2023-05-08T19:20:10.608Z,4.70
2023-05-08T19:22:37.660Z,4.60
2023-05-08T19:25:05.337Z,4.20
2023-05-08T19:27:32.242Z,4.30
2023-05-08T19:29:59.324Z,3.70
2023-05-08T19:32:26.569Z,4.60
2023-05-08T19:34:55.490Z,4.20
2023-05-08T19:37:22.317Z,4.60
2023-05-08T19:39:49.116Z,4.40
2023-05-08T19:42:16.013Z,4.60
2023-05-08T19:44:42.822Z,4.30
2023-05-08T19:47:09.682Z,4.10
2023-05-08T19:49:36.528Z,4.40
2023-05-08T19:52:03.668Z,4.40
2023-05-08T19:54:31.065Z,4.20
2023-05-08T19:56:57.966Z,4.80
2023-05-08T19:59:24.980Z,4.90
2023-05-08T20:01:52.316Z,4.50
2023-05-08T20:04:19.449Z,4.90
2023-05-08T20:08:09.423Z,5.10
2023-05-08T20:10:36.323Z,4.70
2023-05-08T20:13:03.177Z,4.80
2023-05-08T20:15:30.106Z,5.10
2023-05-08T20:17:59.330Z,4.70
2023-05-08T20:20:27.385Z,5.20
2023-05-08T20:22:54.368Z,5.50
2023-05-08T20:25:21.339Z,5.10
2023-05-08T20:27:48.173Z,4.50
2023-05-08T20:30:15.403Z,6.00
2023-05-08T20:32:42.471Z,4.90
2023-05-08T20:35:09.422Z,5.10
2023-05-08T20:37:47.149Z,5.10
2023-05-08T20:40:14.851Z,4.50
2023-05-08T20:42:41.915Z,4.80
2023-05-08T20:45:09.797Z,4.60
2023-05-08T20:47:36.960Z,4.60
2023-05-08T20:50:04.696Z,5.10
2023-05-08T20:52:33.107Z,5.00
2023-05-08T20:55:00.928Z,4.70
2023-05-08T20:57:27.900Z,4.70
2023-05-08T20:59:54.819Z,4.20
2023-05-08T21:02:21.723Z,5.60
2023-05-08T21:04:48.714Z,5.10
2023-05-08T21:07:15.800Z,4.70
2023-05-08T21:09:42.636Z,4.60
2023-05-08T21:12:10.181Z,4.50
2023-05-08T21:14:37.472Z,4.50
2023-05-08T21:17:04.404Z,4.70
2023-05-08T21:19:32.053Z,4.00
2023-05-08T21:21:59.100Z,4.20
2023-05-08T21:24:26.338Z,4.10
2023-05-08T21:26:53.596Z,4.20
2023-05-08T21:29:20.511Z,5.00
2023-05-08T21:31:47.479Z,4.30
2023-05-08T21:34:15.159Z,4.30
2023-05-08T21:36:42.147Z,3.60
2023-05-08T21:39:09.459Z,4.40
2023-05-08T21:41:36.256Z,4.30
2023-05-08T21:44:03.239Z,4.10
2023-05-08T21:46:30.259Z,4.00
2023-05-08T21:48:57.164Z,4.10
2023-05-08T21:51:24.284Z,4.60
2023-05-08T21:53:51.250Z,4.00
2023-05-08T21:56:18.032Z,4.30
2023-05-08T21:58:44.963Z,3.80
2023-05-08T22:01:11.920Z,3.70
2023-05-08T22:03:38.776Z,3.80
2023-05-08T22:06:06.061Z,3.60
2023-05-08T22:08:33.003Z,4.20
2023-05-08T22:10:59.949Z,3.90
2023-05-08T22:13:27.330Z,4.20
2023-05-08T22:15:54.597Z,4.10
2023-05-08T22:18:21.430Z,4.00
2023-05-08T22:20:48.242Z,3.80
2023-05-08T22:23:15.045Z,3.70
2023-05-08T22:25:42.134Z,3.90
2023-05-08T22:28:09.285Z,4.20
2023-05-08T22:30:36.335Z,3.60
2023-05-08T22:33:03.447Z,4.00
2023-05-08T22:35:30.517Z,4.10
2023-05-08T22:37:58.309Z,4.20
2023-05-08T22:40:25.274Z,4.20
2023-05-08T22:42:53.682Z,4.50
2023-05-08T22:45:21.105Z,3.80
2023-05-08T22:47:48.060Z,3.90
2023-05-08T22:50:15.071Z,4.30
2023-05-08T22:52:42.034Z,3.80
2023-05-08T22:55:09.414Z,4.20
2023-05-08T22:57:36.248Z,3.80
2023-05-08T23:00:03.247Z,3.60
2023-05-08T23:02:34.209Z,3.60
2023-05-08T23:05:02.151Z,3.50
2023-05-08T23:07:29.030Z,3.80
2023-05-08T23:09:55.959Z,3.50
2023-05-08T23:12:22.902Z,3.60
2023-05-08T23:14:49.859Z,3.90
2023-05-08T23:17:16.898Z,3.70
2023-05-08T23:19:45.680Z,4.20
2023-05-08T23:22:12.840Z,3.50
2023-05-08T23:24:39.985Z,4.80
2023-05-08T23:27:06.809Z,3.90
2023-05-08T23:29:33.782Z,3.90
2023-05-08T23:32:00.820Z,3.60
2023-05-08T23:34:27.825Z,4.00
2023-05-08T23:36:54.711Z,4.00
2023-05-08T23:39:21.556Z,3.90
2023-05-08T23:41:48.420Z,4.00
2023-05-08T23:44:15.517Z,3.80
2023-05-08T23:46:42.662Z,4.10
2023-05-08T23:49:09.774Z,3.60
2023-05-08T23:51:36.798Z,4.10
2023-05-08T23:54:04.017Z,3.60
2023-05-08T23:56:31.206Z,4.10
2023-05-08T23:58:58.148Z,4.20
